Main page
METAR-TAF:

METAR-TAF

Airports :

Skopje "Alexander the Great" Airport

Skopje, Macedonia

latitude: 41-58N, longitude: 021-39E, elevation: 238 m

Current weather observation

The report was made 14 minutes ago, at 02:30 UTC
Wind 6 kt from the North/Northeast, varying between North and Northeast
Temperature 20°C
Humidity 73%
Pressure 1011 hPa
Visibility 10 km or more
Few clouds at a height of 10000 ft

METAR: LWSK 180230Z 02006KT 350V050 9999 FEW100 20/15 Q1011 NOSIG

Time: 04:44 (02:44 UTC)

Forecast

The report was made 14 minutes ago, at 02:30 UTC
Forecast valid from 18 at 03 UTC to 19 at 03 UTC
Wind 2 kt from variable directions
Visibility 10 km or more
Few clouds at a height of 5000 ft
Scattered clouds at a height of 8000 ft
Becoming
from 18 at 06 UTC to 18 at 08 UTC
Wind 15 kt from the North

TAF: LWSK 180230Z 1803/1903 VRB02KT 9999 FEW050 SCT080 BECMG 1806/1808 36015KT

Weather observations and forecasts of more than 4000 airports (METAR and TAF reports).

The available stations are represented by yellow and red dots on the map.

Hover mouse over dot to see the name of the station.

Then click to see weather observations and forecasts.

To change the map : click on the green buttons with a black cross to zoom in, on the green button with a dash to zoom out, or on the green arrows for adjacent maps.


METAR-TAF: